createdAt,value
2022-08-03T00:00:26.449Z,19.63
2022-08-03T00:02:53.561Z,19.56
2022-08-03T00:05:20.390Z,19.48
2022-08-03T00:07:49.456Z,19.43
2022-08-03T00:10:17.062Z,19.33
2022-08-03T00:12:43.810Z,19.26
2022-08-03T00:15:15.079Z,19.21
2022-08-03T00:17:52.295Z,19.14
2022-08-03T00:20:21.593Z,19.10
2022-08-03T00:22:48.661Z,19.04
2022-08-03T00:25:15.654Z,19.01
2022-08-03T00:27:42.370Z,18.98
2022-08-03T00:30:09.330Z,18.91
2022-08-03T00:32:35.894Z,18.89
2022-08-03T00:35:08.363Z,18.86
2022-08-03T00:37:41.271Z,18.82
2022-08-03T00:40:19.531Z,18.80
2022-08-03T00:42:47.902Z,18.78
2022-08-03T00:45:14.707Z,18.74
2022-08-03T00:47:42.776Z,18.72
2022-08-03T00:50:09.565Z,18.71
2022-08-03T00:52:36.323Z,18.68
2022-08-03T00:55:04.151Z,18.65
2022-08-03T00:57:32.252Z,18.62
2022-08-03T01:00:00.158Z,18.62
2022-08-03T01:02:28.836Z,18.60
2022-08-03T01:04:56.276Z,18.57
2022-08-03T01:07:42.748Z,18.55
2022-08-03T01:10:38.605Z,18.53
2022-08-03T01:14:00.979Z,18.51
2022-08-03T01:16:35.672Z,18.48
2022-08-03T01:19:33.749Z,18.46
2022-08-03T01:22:09.435Z,18.40
2022-08-03T01:24:48.164Z,18.38
2022-08-03T01:27:23.150Z,18.34
2022-08-03T01:30:08.150Z,18.34
2022-08-03T01:33:15.471Z,18.33
2022-08-03T01:35:46.133Z,18.28
2022-08-03T01:38:18.120Z,18.26
2022-08-03T01:40:46.979Z,18.20
2022-08-03T01:44:26.629Z,18.18
2022-08-03T01:46:07.527Z,18.21
2022-08-03T01:48:37.733Z,18.21
2022-08-03T01:51:05.726Z,18.18
2022-08-03T01:53:34.278Z,18.22
2022-08-03T01:56:04.165Z,18.23
2022-08-03T01:58:32.449Z,18.17
2022-08-03T02:01:01.459Z,18.13
2022-08-03T02:03:36.417Z,18.11
2022-08-03T02:07:02.305Z,18.11
2022-08-03T02:08:55.291Z,18.07
2022-08-03T02:11:21.991Z,18.04
2022-08-03T02:13:51.537Z,18.01
2022-08-03T02:16:19.742Z,18.00
2022-08-03T02:18:48.055Z,17.97
2022-08-03T02:21:55.617Z,17.89
2022-08-03T02:24:05.163Z,17.83
2022-08-03T02:26:32.514Z,17.76
2022-08-03T02:29:03.187Z,17.72
2022-08-03T02:31:34.362Z,17.69
2022-08-03T02:34:06.719Z,17.69
2022-08-03T02:36:39.528Z,17.71
2022-08-03T02:39:09.944Z,17.71
2022-08-03T02:41:46.392Z,17.69
2022-08-03T02:44:17.222Z,17.71
2022-08-03T02:46:46.525Z,17.72
2022-08-03T02:49:41.204Z,17.72
2022-08-03T02:52:04.693Z,17.70
2022-08-03T02:54:33.822Z,17.68
2022-08-03T02:57:02.572Z,17.69
2022-08-03T02:59:32.147Z,17.70
2022-08-03T03:02:02.687Z,17.69
2022-08-03T03:04:32.202Z,17.67
2022-08-03T03:07:04.578Z,17.64
2022-08-03T03:09:41.989Z,17.63
2022-08-03T03:12:12.995Z,17.67
2022-08-03T03:14:40.172Z,17.68
2022-08-03T03:17:09.117Z,17.69
2022-08-03T03:19:36.980Z,17.69
2022-08-03T03:22:06.764Z,17.69
2022-08-03T03:24:35.888Z,17.70
2022-08-03T03:27:03.832Z,17.70
2022-08-03T03:29:30.952Z,17.69
2022-08-03T03:32:08.353Z,17.70
2022-08-03T03:34:36.481Z,17.70
2022-08-03T03:37:03.704Z,17.70
2022-08-03T03:39:30.483Z,17.70
2022-08-03T03:41:57.715Z,17.73
2022-08-03T03:44:30.803Z,17.77
2022-08-03T03:46:58.455Z,17.81
2022-08-03T03:49:26.527Z,17.81
2022-08-03T03:51:54.925Z,17.78
2022-08-03T03:54:21.574Z,17.77
2022-08-03T03:56:48.230Z,17.74
2022-08-03T03:59:14.942Z,17.71
2022-08-03T04:01:41.973Z,17.70
2022-08-03T04:04:27.371Z,17.68
2022-08-03T04:07:12.673Z,17.68
2022-08-03T04:10:07.845Z,17.70
2022-08-03T04:12:49.173Z,17.71
2022-08-03T04:15:20.917Z,17.73
2022-08-03T04:17:50.153Z,17.73
2022-08-03T04:20:21.287Z,17.77
2022-08-03T04:22:52.764Z,17.74
2022-08-03T04:25:22.521Z,17.76
2022-08-03T04:28:27.405Z,17.79
2022-08-03T04:30:47.412Z,17.82
2022-08-03T04:33:16.336Z,17.82
2022-08-03T04:36:01.633Z,17.82
2022-08-03T04:38:32.694Z,17.84
2022-08-03T04:41:00.640Z,17.86
2022-08-03T04:43:28.674Z,17.86
2022-08-03T04:45:57.005Z,17.90
2022-08-03T04:48:24.493Z,17.94
2022-08-03T04:50:51.816Z,17.98
2022-08-03T04:53:19.446Z,18.02
2022-08-03T04:55:46.721Z,18.09
2022-08-03T04:58:13.479Z,18.13
2022-08-03T05:00:40.050Z,18.18
2022-08-03T05:03:23.534Z,18.21
2022-08-03T05:06:01.545Z,18.27
2022-08-03T05:08:28.996Z,18.32
2022-08-03T05:10:59.528Z,18.38
2022-08-03T05:13:26.585Z,18.44
2022-08-03T05:15:53.409Z,18.49
2022-08-03T05:18:24.325Z,18.55
2022-08-03T05:20:50.958Z,18.62
2022-08-03T05:23:18.010Z,18.71
2022-08-03T05:25:49.634Z,18.82
2022-08-03T05:28:16.837Z,18.88
2022-08-03T05:30:43.566Z,18.99
2022-08-03T05:33:10.827Z,19.06
2022-08-03T05:35:57.286Z,19.20
2022-08-03T05:38:33.218Z,19.37
2022-08-03T05:41:20.434Z,19.49
2022-08-03T05:43:50.306Z,19.70
2022-08-03T05:46:16.905Z,19.82
2022-08-03T05:48:43.545Z,19.88
2022-08-03T05:51:11.688Z,20.06
2022-08-03T05:53:39.761Z,20.17
2022-08-03T05:56:13.890Z,20.27
2022-08-03T05:58:46.987Z,20.43
2022-08-03T06:01:15.628Z,20.55
2022-08-03T06:03:42.990Z,20.65
2022-08-03T06:06:09.791Z,20.73
2022-08-03T06:08:36.574Z,20.85
2022-08-03T06:11:03.873Z,20.91
2022-08-03T06:13:30.529Z,21.13
2022-08-03T06:15:57.099Z,21.16
2022-08-03T06:18:24.668Z,21.27
2022-08-03T06:20:52.282Z,21.37
2022-08-03T06:23:19.511Z,21.51
2022-08-03T06:25:47.333Z,21.72
2022-08-03T06:28:42.507Z,21.89
2022-08-03T06:31:02.938Z,22.03
2022-08-03T06:34:30.968Z,22.18
2022-08-03T06:36:17.583Z,22.35
2022-08-03T06:38:44.205Z,22.55
2022-08-03T06:41:10.776Z,22.68
2022-08-03T06:43:37.993Z,22.89
2022-08-03T06:46:05.585Z,23.21
2022-08-03T06:48:32.624Z,23.25
2022-08-03T06:50:59.398Z,23.33
2022-08-03T06:53:26.255Z,23.44
2022-08-03T06:55:54.839Z,23.72
2022-08-03T06:58:22.568Z,23.88
2022-08-03T07:00:49.761Z,24.00
2022-08-03T07:03:17.565Z,24.14
2022-08-03T07:05:47.105Z,24.20
2022-08-03T07:08:14.835Z,24.33
2022-08-03T07:10:41.428Z,24.39
2022-08-03T07:13:08.342Z,24.48
2022-08-03T07:15:54.413Z,24.65
2022-08-03T07:18:24.462Z,24.97
2022-08-03T07:20:56.826Z,25.33
2022-08-03T07:23:24.699Z,25.60
2022-08-03T07:25:51.760Z,25.90
2022-08-03T07:28:19.491Z,26.06
2022-08-03T07:30:46.108Z,26.16
2022-08-03T07:33:12.774Z,26.27
2022-08-03T07:35:39.658Z,26.34
2022-08-03T07:38:06.304Z,26.50
2022-08-03T07:40:33.239Z,26.67
2022-08-03T07:43:00.391Z,26.60
2022-08-03T07:45:27.059Z,26.75
2022-08-03T07:47:54.574Z,26.91
2022-08-03T07:50:22.428Z,26.94
2022-08-03T07:52:50.483Z,27.20
2022-08-03T07:55:19.052Z,27.50
2022-08-03T07:57:45.802Z,27.60
2022-08-03T08:00:18.691Z,27.51
2022-08-03T08:02:45.428Z,27.50
2022-08-03T08:05:12.507Z,27.82
2022-08-03T08:07:39.589Z,27.96
2022-08-03T08:10:09.859Z,28.04
2022-08-03T08:12:37.670Z,28.14
2022-08-03T08:15:05.566Z,28.35
2022-08-03T08:17:40.675Z,28.50
2022-08-03T08:20:07.918Z,28.63
2022-08-03T08:22:35.583Z,28.75
2022-08-03T08:25:05.625Z,28.80
2022-08-03T08:28:30.572Z,28.73
2022-08-03T08:30:21.427Z,28.99
2022-08-03T08:32:48.852Z,29.05
2022-08-03T08:35:16.309Z,29.28
2022-08-03T08:37:43.392Z,29.54
2022-08-03T08:40:21.057Z,29.70
2022-08-03T08:42:57.831Z,29.83
2022-08-03T08:45:24.965Z,29.88
2022-08-03T08:47:54.742Z,29.98
2022-08-03T08:50:27.765Z,30.07
2022-08-03T08:52:55.135Z,30.09
2022-08-03T08:55:23.413Z,30.18
2022-08-03T08:57:55.370Z,30.25
2022-08-03T09:00:22.029Z,30.43
2022-08-03T09:02:51.124Z,30.59
2022-08-03T09:05:19.115Z,30.43
2022-08-03T09:07:47.664Z,30.37
2022-08-03T09:10:22.023Z,30.16
2022-08-03T09:12:51.199Z,30.05
2022-08-03T09:15:19.502Z,30.27
2022-08-03T09:17:50.683Z,30.53
2022-08-03T09:20:19.118Z,30.71
2022-08-03T09:23:44.678Z,30.83
2022-08-03T09:26:01.599Z,30.96
2022-08-03T09:29:01.287Z,31.26
2022-08-03T09:31:34.443Z,31.58
2022-08-03T09:34:03.762Z,31.37
2022-08-03T09:36:39.550Z,31.53
2022-08-03T09:39:17.894Z,31.53
2022-08-03T09:42:04.579Z,31.67
2022-08-03T09:44:42.129Z,31.68
2022-08-03T09:47:14.313Z,31.68
2022-08-03T09:49:42.795Z,31.80
2022-08-03T09:52:49.426Z,31.61
2022-08-03T09:56:34.126Z,31.88
2022-08-03T09:58:11.711Z,31.84
2022-08-03T10:01:05.227Z,31.98
2022-08-03T10:04:03.244Z,31.94
2022-08-03T10:06:25.486Z,31.74
2022-08-03T10:09:13.743Z,31.75
2022-08-03T10:11:42.592Z,31.83
2022-08-03T10:14:18.544Z,31.92
2022-08-03T10:16:46.852Z,31.53
2022-08-03T10:19:15.082Z,31.66
2022-08-03T10:21:58.553Z,31.88
2022-08-03T10:24:28.207Z,32.00
2022-08-03T10:27:15.466Z,32.14
2022-08-03T10:29:50.427Z,32.18
2022-08-03T10:32:30.396Z,32.00
2022-08-03T10:35:19.095Z,32.00
2022-08-03T10:37:58.826Z,31.95
2022-08-03T10:43:28.610Z,32.26
2022-08-03T10:45:56.213Z,32.45
2022-08-03T10:48:23.155Z,32.57
2022-08-03T10:50:50.768Z,32.36
2022-08-03T10:53:34.553Z,32.41
2022-08-03T10:56:48.028Z,32.34
2022-08-03T10:59:27.467Z,32.58
2022-08-03T11:02:00.092Z,32.66
2022-08-03T11:04:29.188Z,32.58
2022-08-03T11:07:24.542Z,32.42
2022-08-03T11:09:53.430Z,32.58
2022-08-03T11:12:35.350Z,32.66
2022-08-03T11:15:05.809Z,32.71
2022-08-03T11:17:46.117Z,32.56
2022-08-03T11:20:44.995Z,32.64
2022-08-03T11:23:12.056Z,32.45
2022-08-03T11:26:10.845Z,32.69
2022-08-03T11:28:40.795Z,32.75
2022-08-03T11:31:47.960Z,32.44
2022-08-03T11:34:11.304Z,32.23
2022-08-03T11:37:15.641Z,32.48
2022-08-03T11:39:45.369Z,32.15
2022-08-03T11:42:24.742Z,32.22
2022-08-03T11:44:53.485Z,32.26
2022-08-03T11:47:26.933Z,32.26
2022-08-03T11:50:00.051Z,32.46
2022-08-03T11:52:28.976Z,32.25
2022-08-03T11:54:56.981Z,32.33
2022-08-03T11:59:10.748Z,32.36
2022-08-03T12:00:30.423Z,32.34
2022-08-03T12:03:07.536Z,32.45
2022-08-03T12:05:41.631Z,32.48
2022-08-03T12:08:28.137Z,32.61
2022-08-03T12:10:56.545Z,32.40
2022-08-03T12:14:36.708Z,32.49
2022-08-03T12:16:10.948Z,32.47
2022-08-03T12:18:37.770Z,32.50
2022-08-03T12:21:10.181Z,32.48
2022-08-03T12:23:38.243Z,32.30
2022-08-03T12:26:09.960Z,32.27
2022-08-03T12:28:38.346Z,32.35
2022-08-03T12:31:07.783Z,32.01
2022-08-03T12:33:55.820Z,32.20
2022-08-03T12:36:22.913Z,32.29
2022-08-03T12:39:01.696Z,32.41
2022-08-03T12:41:39.419Z,32.42
2022-08-03T12:44:07.892Z,32.54
2022-08-03T12:46:43.947Z,32.57
2022-08-03T12:49:18.046Z,32.60
2022-08-03T12:51:44.590Z,32.63
2022-08-03T12:54:24.697Z,32.45
2022-08-03T12:57:02.069Z,32.59
2022-08-03T12:59:32.331Z,32.63
2022-08-03T13:02:09.194Z,32.52
2022-08-03T13:04:36.967Z,32.59
2022-08-03T13:07:14.198Z,32.62
2022-08-03T13:09:49.645Z,32.50
2022-08-03T13:12:21.401Z,32.29
2022-08-03T13:14:50.478Z,32.28
2022-08-03T13:17:17.999Z,32.38
2022-08-03T13:19:46.351Z,32.44
2022-08-03T13:22:24.418Z,32.58
2022-08-03T13:24:53.058Z,32.43
2022-08-03T13:28:02.291Z,32.38
2022-08-03T13:30:07.752Z,32.34
2022-08-03T13:32:35.146Z,32.30
2022-08-03T13:35:02.894Z,32.45
2022-08-03T13:37:32.192Z,32.52
2022-08-03T13:40:04.473Z,32.50
2022-08-03T13:42:32.724Z,32.41
2022-08-03T13:45:00.632Z,32.48
2022-08-03T13:47:28.187Z,32.57
2022-08-03T13:50:00.994Z,32.66
2022-08-03T13:52:36.092Z,32.66
2022-08-03T13:55:05.766Z,32.73
2022-08-03T13:58:04.319Z,32.78
2022-08-03T14:00:27.383Z,32.80
2022-08-03T14:03:17.376Z,32.84
2022-08-03T14:05:44.416Z,32.82
2022-08-03T14:08:12.014Z,32.77
2022-08-03T14:10:41.704Z,32.75
2022-08-03T14:13:11.725Z,32.67
2022-08-03T14:15:38.862Z,32.54
2022-08-03T14:18:15.236Z,32.60
2022-08-03T14:20:47.849Z,32.79
2022-08-03T14:23:17.430Z,32.82
2022-08-03T14:25:52.526Z,32.97
2022-08-03T14:28:22.441Z,33.05
2022-08-03T14:30:50.002Z,33.07
2022-08-03T14:33:16.821Z,33.08
2022-08-03T14:35:43.526Z,32.87
2022-08-03T14:38:10.237Z,32.72
2022-08-03T14:40:36.929Z,32.68
2022-08-03T14:43:05.056Z,32.56
2022-08-03T14:45:31.862Z,32.64
2022-08-03T14:50:32.075Z,32.73
2022-08-03T14:50:51.047Z,32.82
2022-08-03T14:53:19.222Z,32.92
2022-08-03T14:55:50.408Z,32.95
2022-08-03T14:58:27.680Z,32.99
2022-08-03T15:00:55.535Z,32.93
2022-08-03T15:03:24.626Z,32.83
2022-08-03T15:05:54.087Z,32.80
2022-08-03T15:08:22.387Z,32.78
2022-08-03T15:10:50.392Z,32.76
2022-08-03T15:13:19.370Z,32.80
2022-08-03T15:15:46.147Z,32.81
2022-08-03T15:18:12.806Z,32.83
2022-08-03T15:20:44.998Z,32.85
2022-08-03T15:23:14.311Z,32.85
2022-08-03T15:26:31.998Z,32.79
2022-08-03T15:28:29.181Z,32.68
2022-08-03T15:30:55.878Z,32.62
2022-08-03T15:33:22.510Z,32.65
2022-08-03T15:35:49.851Z,32.75
2022-08-03T15:38:16.587Z,32.83
2022-08-03T15:40:43.361Z,32.86
2022-08-03T15:43:10.130Z,32.86
2022-08-03T15:45:37.210Z,32.80
2022-08-03T15:48:05.407Z,32.82
2022-08-03T15:50:32.052Z,32.76
2022-08-03T15:52:58.845Z,32.69
2022-08-03T15:55:25.678Z,32.63
2022-08-03T15:59:04.857Z,32.57
2022-08-03T16:00:39.848Z,32.50
2022-08-03T16:03:06.448Z,32.49
2022-08-03T16:05:33.313Z,32.51
2022-08-03T16:08:03.578Z,32.41
2022-08-03T16:10:32.669Z,32.47
2022-08-03T16:13:00.157Z,32.46
2022-08-03T16:15:27.495Z,32.47
2022-08-03T16:17:54.288Z,32.49
2022-08-03T16:20:33.884Z,32.51
2022-08-03T16:23:10.541Z,32.54
2022-08-03T16:25:40.406Z,32.58
2022-08-03T16:28:13.472Z,32.62
2022-08-03T16:30:42.674Z,32.62
2022-08-03T16:33:10.696Z,32.55
2022-08-03T16:35:37.449Z,32.44
2022-08-03T16:38:09.760Z,32.42
2022-08-03T16:40:38.035Z,32.45
2022-08-03T16:43:18.489Z,32.42
2022-08-03T16:45:49.608Z,32.39
2022-08-03T16:48:16.977Z,32.36
2022-08-03T16:50:44.487Z,32.28
2022-08-03T16:53:16.418Z,32.29
2022-08-03T16:55:53.851Z,32.32
2022-08-03T16:58:24.312Z,32.33
2022-08-03T17:01:01.114Z,32.27
2022-08-03T17:03:42.713Z,32.20
2022-08-03T17:06:25.687Z,32.19
2022-08-03T17:09:00.675Z,32.09
2022-08-03T17:11:30.022Z,32.04
2022-08-03T17:14:00.522Z,31.96
2022-08-03T17:16:27.362Z,31.94
2022-08-03T17:19:04.143Z,31.83
2022-08-03T17:21:32.978Z,31.83
2022-08-03T17:24:19.846Z,31.80
2022-08-03T17:26:50.021Z,31.84
2022-08-03T17:29:25.004Z,31.77
2022-08-03T17:31:52.878Z,31.75
2022-08-03T17:34:20.747Z,31.74
2022-08-03T17:37:27.299Z,31.71
2022-08-03T17:39:58.080Z,31.60
2022-08-03T17:42:30.324Z,31.59
2022-08-03T17:44:58.711Z,31.51
2022-08-03T17:47:41.973Z,31.49
2022-08-03T17:50:24.649Z,31.44
2022-08-03T17:53:23.566Z,31.41
2022-08-03T17:56:40.697Z,31.34
2022-08-03T17:59:15.401Z,31.31
2022-08-03T18:02:28.006Z,31.27
2022-08-03T18:05:16.319Z,31.24
2022-08-03T18:07:50.854Z,31.18
2022-08-03T18:10:34.285Z,31.13
2022-08-03T18:13:13.972Z,31.10
2022-08-03T18:15:56.109Z,31.03
2022-08-03T18:18:33.733Z,30.99
2022-08-03T18:21:16.723Z,30.94
2022-08-03T18:23:45.738Z,30.88
2022-08-03T18:26:17.319Z,30.83
2022-08-03T18:28:44.565Z,30.81
2022-08-03T18:31:53.424Z,30.75
2022-08-03T18:34:16.858Z,30.66
2022-08-03T18:36:48.179Z,30.53
2022-08-03T18:39:14.951Z,30.41
2022-08-03T18:41:46.290Z,30.31
2022-08-03T18:44:53.123Z,30.19
2022-08-03T18:47:23.051Z,30.05
2022-08-03T18:50:01.771Z,29.98
2022-08-03T18:52:45.691Z,29.90
2022-08-03T18:55:20.033Z,29.78
2022-08-03T18:58:17.773Z,29.65
2022-08-03T19:04:04.316Z,29.42
2022-08-03T19:06:32.386Z,29.30
2022-08-03T19:09:09.463Z,29.19
2022-08-03T19:14:34.515Z,28.99
2022-08-03T19:17:08.610Z,28.84
2022-08-03T19:19:44.351Z,28.70
2022-08-03T19:22:16.222Z,28.59
2022-08-03T19:24:45.493Z,28.51
2022-08-03T19:27:16.024Z,28.43
2022-08-03T19:29:57.898Z,28.36
2022-08-03T19:32:32.282Z,28.28
2022-08-03T19:35:01.503Z,28.20
2022-08-03T19:37:38.031Z,28.08
2022-08-03T19:40:10.758Z,27.94
2022-08-03T19:42:44.715Z,27.81
2022-08-03T19:45:17.030Z,27.64
2022-08-03T19:47:52.995Z,27.46
2022-08-03T19:50:20.574Z,27.32
2022-08-03T19:52:49.743Z,27.18
2022-08-03T19:55:17.690Z,27.06
2022-08-03T19:57:49.186Z,26.96
2022-08-03T20:00:19.403Z,26.88
2022-08-03T20:02:46.477Z,26.81
2022-08-03T20:05:15.408Z,26.76
2022-08-03T20:07:48.303Z,26.69
2022-08-03T20:10:17.648Z,26.62
2022-08-03T20:12:45.907Z,26.55
2022-08-03T20:15:12.942Z,26.53
2022-08-03T20:17:56.267Z,26.46
2022-08-03T20:20:37.166Z,26.39
2022-08-03T20:23:13.085Z,26.35
2022-08-03T20:25:56.973Z,26.31
2022-08-03T20:28:50.224Z,26.20
2022-08-03T20:31:36.143Z,26.16
2022-08-03T20:34:03.465Z,26.09
2022-08-03T20:36:32.293Z,26.04
2022-08-03T20:41:45.921Z,25.92
2022-08-03T20:44:12.560Z,25.88
2022-08-03T20:46:53.512Z,25.81
2022-08-03T20:49:25.950Z,25.74
2022-08-03T20:51:53.748Z,25.66
2022-08-03T20:54:30.941Z,25.62
2022-08-03T20:57:00.700Z,25.55
2022-08-03T20:59:47.398Z,25.52
2022-08-03T21:02:29.796Z,25.49
2022-08-03T21:05:03.342Z,25.44
2022-08-03T21:08:05.813Z,25.39
2022-08-03T21:10:28.568Z,25.34
2022-08-03T21:13:01.459Z,29.09
2022-08-03T21:13:07.250Z,26.01
2022-08-03T21:13:09.361Z,29.54
2022-08-03T21:16:07.106Z,25.12
2022-08-03T21:18:50.930Z,24.88
2022-08-03T21:21:22.313Z,24.68
2022-08-03T21:23:52.509Z,24.49
2022-08-03T21:26:21.069Z,24.27
2022-08-03T21:28:52.336Z,24.07
2022-08-03T21:31:25.305Z,23.95
2022-08-03T21:33:58.432Z,23.83
2022-08-03T21:36:30.345Z,23.79
2022-08-03T21:38:58.654Z,23.76
2022-08-03T21:41:27.821Z,23.73
2022-08-03T21:43:54.867Z,23.72
2022-08-03T21:46:25.381Z,23.68
2022-08-03T21:50:04.836Z,23.69
2022-08-03T21:51:49.543Z,23.70
2022-08-03T21:54:17.596Z,23.72
2022-08-03T21:56:47.625Z,23.73
2022-08-03T21:59:19.828Z,23.74
2022-08-03T22:01:49.361Z,23.68
2022-08-03T22:04:50.241Z,23.50
2022-08-03T22:07:08.041Z,23.36
2022-08-03T22:09:35.987Z,23.29
2022-08-03T22:12:03.000Z,23.17
2022-08-03T22:14:32.595Z,23.10
2022-08-03T22:17:00.616Z,23.04
2022-08-03T22:19:30.089Z,23.01
2022-08-03T22:21:59.315Z,22.99
2022-08-03T22:24:28.827Z,22.98
2022-08-03T22:27:14.434Z,22.98
2022-08-03T22:29:42.645Z,22.99
2022-08-03T22:32:10.456Z,22.99
2022-08-03T22:34:37.494Z,22.97
2022-08-03T22:37:04.878Z,22.96
2022-08-03T22:39:32.312Z,22.83
2022-08-03T22:42:00.094Z,22.64
2022-08-03T22:44:28.248Z,22.49
2022-08-03T22:46:56.557Z,22.39
2022-08-03T22:49:24.116Z,22.29
2022-08-03T22:51:52.029Z,22.22
2022-08-03T22:54:19.176Z,22.18
2022-08-03T22:56:46.990Z,22.15
2022-08-03T22:59:39.077Z,22.12
2022-08-03T23:02:20.086Z,22.14
2022-08-03T23:04:53.277Z,22.18
2022-08-03T23:07:27.258Z,22.22
2022-08-03T23:09:56.720Z,22.25
2022-08-03T23:12:23.780Z,22.26
2022-08-03T23:14:55.953Z,22.24
2022-08-03T23:17:24.179Z,22.18
2022-08-03T23:19:53.674Z,22.04
2022-08-03T23:22:30.129Z,21.93
2022-08-03T23:24:59.100Z,21.87
2022-08-03T23:27:27.596Z,21.83
2022-08-03T23:29:57.378Z,21.77
2022-08-03T23:32:28.688Z,21.72
2022-08-03T23:35:19.119Z,21.73
2022-08-03T23:38:04.333Z,21.73
2022-08-03T23:40:33.994Z,21.74
2022-08-03T23:43:02.230Z,21.78
2022-08-03T23:45:31.230Z,21.79
2022-08-03T23:47:57.900Z,21.78
2022-08-03T23:50:25.080Z,21.77
2022-08-03T23:53:04.762Z,21.77
2022-08-03T23:55:45.715Z,21.78
2022-08-03T23:58:34.530Z,21.78
